createdAt,value
2024-01-09T00:04:09.728Z,8
2024-01-09T00:14:09.862Z,7
2024-01-09T00:24:09.835Z,6.9
2024-01-09T00:34:09.987Z,6.7
2024-01-09T00:44:10.124Z,6.6
2024-01-09T00:54:19.914Z,6.8
2024-01-09T01:04:29.961Z,6.4
2024-01-09T01:14:29.974Z,6.5
2024-01-09T01:24:30.022Z,6.4
2024-01-09T01:34:29.982Z,6.5
2024-01-09T01:44:40.089Z,6.4
2024-01-09T01:54:39.939Z,6.1
2024-01-09T02:04:49.938Z,6.1
2024-01-09T02:14:59.790Z,5.8
2024-01-09T02:25:09.261Z,6
2024-01-09T02:35:09.337Z,6.1
2024-01-09T02:45:19.290Z,6.1
2024-01-09T02:55:19.392Z,6
2024-01-09T03:05:19.822Z,5.9
2024-01-09T03:15:28.991Z,6
2024-01-09T03:25:29.029Z,5.5
2024-01-09T03:35:29.141Z,5.4
2024-01-09T03:45:29.181Z,5.5
2024-01-09T03:55:29.318Z,5.3
2024-01-09T04:05:29.641Z,5.2
2024-01-09T04:15:29.519Z,5.2
2024-01-09T04:25:29.751Z,5.3
2024-01-09T04:35:29.807Z,5.3
2024-01-09T04:45:30.083Z,5.1
2024-01-09T04:55:30.424Z,5.5
2024-01-09T05:05:30.797Z,5.8
2024-01-09T05:15:31.005Z,5.2
2024-01-09T05:25:31.616Z,4.8
2024-01-09T05:35:31.951Z,4.7
2024-01-09T05:45:32.262Z,4.4
2024-01-09T05:55:32.661Z,4.7
2024-01-09T06:05:32.939Z,4.8
2024-01-09T06:15:33.047Z,4.9
2024-01-09T06:25:34.265Z,4.9
2024-01-09T06:35:36.131Z,5.1
2024-01-09T06:45:36.159Z,4.7
2024-01-09T06:55:36.288Z,4.4
2024-01-09T07:05:42.590Z,4.2
2024-01-09T07:15:42.754Z,4.3
2024-01-09T07:25:47.690Z,4.1
2024-01-09T07:36:44.978Z,4.1
2024-01-09T07:46:05.023Z,4.5
2024-01-09T07:55:56.271Z,4.6
2024-01-09T08:06:01.477Z,4.7
2024-01-09T08:46:14.973Z,5
2024-01-09T08:56:23.733Z,6.1
2024-01-09T09:06:33.583Z,6.9
2024-01-09T09:16:43.982Z,7
2024-01-09T09:26:53.011Z,7.5
2024-01-09T09:37:02.859Z,8
2024-01-09T09:47:12.696Z,8.2
2024-01-09T09:57:22.565Z,8.6
2024-01-09T10:07:32.333Z,8.8
2024-01-09T10:17:42.000Z,9
2024-01-09T10:27:51.795Z,9.2
2024-01-09T10:38:01.693Z,9.4
2024-01-09T10:48:02.336Z,9.8
2024-01-09T10:58:02.257Z,10.3
2024-01-09T11:08:13.172Z,10.7
2024-01-09T11:18:13.406Z,11
2024-01-09T11:28:22.303Z,11.3
2024-01-09T11:38:22.466Z,11.7
2024-01-09T11:48:22.703Z,12
2024-01-09T12:08:24.897Z,12.5
2024-01-09T12:18:34.938Z,12.9
2024-01-09T12:28:44.182Z,13.3
2024-01-09T12:38:44.187Z,13.5
2024-01-09T12:49:03.478Z,13.8
2024-01-09T12:58:56.495Z,14
2024-01-09T13:09:06.347Z,13.8
2024-01-09T13:39:17.300Z,13.7
2024-01-09T13:59:19.840Z,13.7
2024-01-09T14:09:21.012Z,13.4
2024-01-09T14:19:23.270Z,13.5
2024-01-09T14:29:30.133Z,13.6
2024-01-09T14:39:30.371Z,14
2024-01-09T14:49:30.613Z,13.4
2024-01-09T14:59:31.100Z,13.4
2024-01-09T15:09:31.129Z,13.5
2024-01-09T15:19:41.249Z,13.3
2024-01-09T15:29:42.442Z,13.3
2024-01-09T15:39:50.650Z,13.3
2024-01-09T15:50:00.836Z,13.1
2024-01-09T16:00:00.812Z,13
2024-01-09T16:10:01.095Z,12.9
2024-01-09T16:20:10.643Z,12.6
2024-01-09T16:30:10.724Z,12.5
2024-01-09T16:40:12.546Z,12.5
2024-01-09T16:50:12.922Z,12.3
2024-01-09T17:00:22.855Z,12.2
2024-01-09T17:10:32.677Z,12.1
2024-01-09T17:20:32.837Z,12
2024-01-09T17:30:32.920Z,11.7
2024-01-09T17:40:33.025Z,11.6
2024-01-09T17:50:43.019Z,11.6
2024-01-09T18:00:42.947Z,11.6
2024-01-09T18:10:43.264Z,11.6
2024-01-09T18:20:44.050Z,11.6
2024-01-09T18:30:44.888Z,11.5
2024-01-09T18:40:45.070Z,11.2
2024-01-09T18:50:50.693Z,11.1
2024-01-09T19:00:52.271Z,11.2
2024-01-09T19:10:51.066Z,10.9
2024-01-09T19:20:57.904Z,10.9
2024-01-09T19:30:58.245Z,10.7
2024-01-09T19:41:17.609Z,10.7
2024-01-09T19:51:13.803Z,10.8
2024-01-09T20:01:20.206Z,11
2024-01-09T20:11:28.924Z,10.5
2024-01-09T20:21:33.845Z,10.3
2024-01-09T20:31:43.022Z,10.2
2024-01-09T20:41:53.976Z,10.1
2024-01-09T20:51:57.628Z,10
2024-01-09T21:01:57.900Z,9.8
2024-01-09T21:11:58.106Z,9.5
2024-01-09T21:21:58.309Z,9.5
2024-01-09T21:39:56.657Z,9.4
2024-01-09T21:50:04.235Z,9.4
2024-01-09T22:00:09.125Z,9.4
2024-01-09T22:10:10.275Z,9.3
2024-01-09T22:20:10.313Z,9.3
2024-01-09T22:30:20.182Z,9.3
2024-01-09T22:40:29.645Z,9.1
2024-01-09T22:50:47.256Z,9.1
2024-01-09T23:00:45.767Z,9.1
2024-01-09T23:10:49.037Z,9
2024-01-09T23:20:49.827Z,8.9
2024-01-09T23:30:51.125Z,8.8
2024-01-09T23:41:02.673Z,8.5
2024-01-09T23:51:02.276Z,8.5
